createdAt,value
2022-08-01T00:00:32.980Z,64.50
2022-08-01T00:01:33.081Z,64.40
2022-08-01T00:02:33.037Z,64.01
2022-08-01T00:03:32.988Z,64.40
2022-08-01T00:04:32.996Z,64.40
2022-08-01T00:05:32.997Z,64.01
2022-08-01T00:06:32.998Z,64.50
2022-08-01T00:07:33.002Z,64.59
2022-08-01T00:08:33.006Z,64.89
2022-08-01T00:09:33.011Z,64.11
2022-08-01T00:10:33.020Z,64.11
2022-08-01T00:11:33.032Z,64.79
2022-08-01T00:12:33.028Z,64.50
2022-08-01T00:13:33.047Z,64.98
2022-08-01T00:14:33.038Z,64.69
2022-08-01T00:15:33.026Z,65.27
2022-08-01T00:16:33.034Z,65.17
2022-08-01T00:17:33.039Z,65.47
2022-08-01T00:18:33.042Z,65.56
2022-08-01T00:19:33.044Z,65.17
2022-08-01T00:20:33.057Z,65.85
2022-08-01T00:21:33.063Z,66.14
2022-08-01T00:22:33.072Z,66.33
2022-08-01T00:23:33.059Z,66.43
2022-08-01T00:24:33.061Z,66.53
2022-08-01T00:25:34.211Z,67.01
2022-08-01T00:26:33.079Z,68.07
2022-08-01T00:27:33.077Z,68.55
2022-08-01T00:28:33.088Z,68.84
2022-08-01T00:30:10.919Z,69.58
2022-08-01T00:30:33.089Z,69.39
2022-08-01T00:31:33.105Z,69.58
2022-08-01T00:32:33.221Z,69.58
2022-08-01T00:33:33.112Z,69.39
2022-08-01T00:34:33.097Z,69.39
2022-08-01T00:35:33.102Z,69.39
2022-08-01T00:36:33.098Z,69.58
2022-08-01T00:37:33.108Z,69.49
2022-08-01T00:38:33.114Z,69.49
2022-08-01T00:39:33.137Z,69.68
2022-08-01T00:40:33.141Z,69.49
2022-08-01T00:41:33.120Z,69.49
2022-08-01T00:42:33.138Z,70.16
2022-08-01T00:43:33.149Z,69.87
2022-08-01T00:44:33.163Z,69.78
2022-08-01T00:45:33.134Z,69.87
2022-08-01T00:46:33.133Z,69.87
2022-08-01T00:47:33.144Z,70.06
2022-08-01T00:48:33.158Z,70.26
2022-08-01T00:49:33.252Z,70.26
2022-08-01T00:50:33.163Z,70.26
2022-08-01T00:51:33.150Z,70.84
2022-08-01T00:52:33.145Z,70.64
2022-08-01T00:53:51.106Z,71.22
2022-08-01T00:54:33.166Z,71.32
2022-08-01T00:55:33.194Z,71.51
2022-08-01T00:56:33.177Z,71.61
2022-08-01T00:58:01.380Z,72.00
2022-08-01T00:58:33.181Z,71.80
2022-08-01T00:59:33.190Z,72.38
2022-08-01T01:00:34.753Z,72.38
2022-08-01T01:01:39.585Z,72.38
2022-08-01T01:02:33.188Z,72.00
2022-08-01T01:03:57.422Z,72.67
2022-08-01T01:04:33.182Z,72.86
2022-08-01T01:05:37.330Z,72.96
2022-08-01T01:06:33.205Z,72.67
2022-08-01T01:07:33.203Z,72.96
2022-08-01T01:08:33.213Z,73.15
2022-08-01T01:09:33.205Z,73.25
2022-08-01T01:10:33.209Z,72.96
2022-08-01T01:11:33.217Z,73.44
2022-08-01T01:12:38.262Z,72.96
2022-08-01T01:13:33.226Z,73.15
2022-08-01T01:14:33.217Z,72.96
2022-08-01T01:15:33.214Z,73.73
2022-08-01T01:16:33.222Z,73.73
2022-08-01T01:17:50.659Z,73.54
2022-08-01T01:18:33.261Z,73.93
2022-08-01T01:19:33.232Z,73.83
2022-08-01T01:20:33.239Z,74.41
2022-08-01T01:21:33.252Z,74.31
2022-08-01T01:22:33.245Z,74.51
2022-08-01T01:23:33.256Z,74.79
2022-08-01T01:24:33.244Z,74.60
2022-08-01T01:25:33.279Z,74.41
2022-08-01T01:26:33.254Z,74.51
2022-08-01T01:27:33.290Z,74.31
2022-08-01T01:28:33.302Z,74.51
2022-08-01T01:29:59.630Z,74.89
2022-08-01T01:30:33.272Z,74.89
2022-08-01T01:31:33.271Z,75.18
2022-08-01T01:32:33.275Z,75.27
2022-08-01T01:33:33.275Z,75.37
2022-08-01T01:34:33.302Z,75.67
2022-08-01T01:35:33.277Z,75.27
2022-08-01T01:36:33.285Z,74.60
2022-08-01T01:37:33.289Z,74.69
2022-08-01T01:38:33.298Z,74.51
2022-08-01T01:39:33.292Z,73.83
2022-08-01T01:40:33.305Z,74.12
2022-08-01T01:41:33.296Z,73.73
2022-08-01T01:42:33.298Z,74.12
2022-08-01T01:43:33.867Z,73.93
2022-08-01T01:44:33.313Z,74.51
2022-08-01T01:45:33.323Z,74.41
2022-08-01T01:46:33.336Z,74.51
2022-08-01T01:47:33.323Z,74.69
2022-08-01T01:48:33.330Z,74.60
2022-08-01T01:49:33.378Z,74.12
2022-08-01T01:50:33.340Z,74.12
2022-08-01T01:51:33.338Z,74.21
2022-08-01T01:52:33.369Z,73.93
2022-08-01T01:53:33.329Z,73.73
2022-08-01T01:54:33.349Z,74.02
2022-08-01T01:55:33.355Z,74.21
2022-08-01T01:56:33.351Z,73.63
2022-08-01T01:57:33.353Z,73.83
2022-08-01T01:58:33.359Z,74.12
2022-08-01T01:59:33.353Z,74.51
2022-08-01T02:00:33.368Z,74.60
2022-08-01T02:02:06.088Z,74.51
2022-08-01T02:02:33.391Z,74.51
2022-08-01T02:03:33.375Z,74.51
2022-08-01T02:04:33.382Z,74.69
2022-08-01T02:05:33.455Z,74.69
2022-08-01T02:06:33.421Z,74.60
2022-08-01T02:07:33.369Z,74.69
2022-08-01T02:08:33.379Z,74.79
2022-08-01T02:09:33.376Z,74.60
2022-08-01T02:10:33.377Z,74.99
2022-08-01T02:11:33.391Z,75.18
2022-08-01T02:12:33.401Z,74.99
2022-08-01T02:13:33.400Z,75.18
2022-08-01T02:14:33.397Z,75.09
2022-08-01T02:15:33.402Z,75.18
2022-08-01T02:16:33.414Z,75.47
2022-08-01T02:17:33.402Z,75.95
2022-08-01T02:18:33.401Z,76.24
2022-08-01T02:19:38.048Z,76.63
2022-08-01T02:20:33.418Z,76.53
2022-08-01T02:21:33.448Z,77.11
2022-08-01T02:22:33.432Z,76.92
2022-08-01T02:23:33.432Z,77.40
2022-08-01T02:24:33.432Z,77.21
2022-08-01T02:25:33.435Z,77.21
2022-08-01T02:26:33.441Z,77.30
2022-08-01T02:27:33.438Z,77.01
2022-08-01T02:28:33.431Z,77.88
2022-08-01T02:29:33.466Z,77.50
2022-08-01T02:30:33.434Z,77.40
2022-08-01T02:31:33.438Z,77.69
2022-08-01T02:32:33.437Z,77.40
2022-08-01T02:33:33.446Z,77.40
2022-08-01T02:34:33.465Z,77.11
2022-08-01T02:35:33.455Z,77.69
2022-08-01T02:36:33.774Z,77.75
2022-08-01T02:37:33.456Z,78.36
2022-08-01T02:38:33.495Z,78.91
2022-08-01T02:39:33.461Z,78.36
2022-08-01T02:40:33.464Z,78.23
2022-08-01T02:41:33.465Z,78.33
2022-08-01T02:42:33.479Z,78.81
2022-08-01T02:43:33.480Z,78.71
2022-08-01T02:44:33.496Z,78.85
2022-08-01T02:45:33.481Z,78.81
2022-08-01T02:46:33.497Z,79.58
2022-08-01T02:47:33.493Z,79.49
2022-08-01T02:48:33.496Z,79.10
2022-08-01T02:49:33.535Z,79.39
2022-08-01T02:50:33.486Z,79.87
2022-08-01T02:51:33.495Z,79.19
2022-08-01T02:52:33.497Z,80.16
2022-08-01T02:53:43.837Z,79.97
2022-08-01T02:54:33.525Z,79.77
2022-08-01T02:55:33.506Z,80.16
2022-08-01T02:56:33.574Z,80.16
2022-08-01T02:57:37.665Z,80.16
2022-08-01T02:58:33.517Z,80.64
2022-08-01T02:59:33.523Z,80.35
2022-08-01T03:00:33.539Z,80.35
2022-08-01T03:01:33.554Z,80.16
2022-08-01T03:02:33.536Z,80.35
2022-08-01T03:03:33.529Z,80.35
2022-08-01T03:04:33.531Z,80.16
2022-08-01T03:05:33.539Z,79.87
2022-08-01T03:06:33.534Z,80.00
2022-08-01T03:07:34.626Z,79.97
2022-08-01T03:08:33.544Z,79.58
2022-08-01T03:09:33.552Z,80.06
2022-08-01T03:10:33.551Z,79.97
2022-08-01T03:11:33.551Z,80.26
2022-08-01T03:12:33.556Z,80.26
2022-08-01T03:13:33.559Z,80.16
2022-08-01T03:14:33.552Z,80.16
2022-08-01T03:15:33.557Z,80.45
2022-08-01T03:16:33.562Z,80.45
2022-08-01T03:17:33.564Z,81.12
2022-08-01T03:18:33.559Z,81.12
2022-08-01T03:19:33.562Z,81.12
2022-08-01T03:20:33.578Z,81.12
2022-08-01T03:21:33.565Z,81.60
2022-08-01T03:22:33.577Z,81.51
2022-08-01T03:23:37.801Z,81.80
2022-08-01T03:24:33.572Z,82.18
2022-08-01T03:25:33.577Z,81.90
2022-08-01T03:26:33.582Z,82.09
2022-08-01T03:27:33.588Z,83.05
2022-08-01T03:28:33.609Z,82.67
2022-08-01T03:29:33.589Z,82.67
2022-08-01T03:30:33.601Z,82.76
2022-08-01T03:31:33.598Z,83.34
2022-08-01T03:32:33.612Z,83.53
2022-08-01T03:33:33.626Z,82.96
2022-08-01T03:34:33.606Z,83.05
2022-08-01T03:35:33.615Z,83.15
2022-08-01T03:36:33.604Z,83.15
2022-08-01T03:37:33.633Z,83.34
2022-08-01T03:38:33.687Z,83.44
2022-08-01T03:39:33.617Z,83.25
2022-08-01T03:40:33.621Z,83.15
2022-08-01T03:41:33.622Z,82.96
2022-08-01T03:42:33.612Z,82.76
2022-08-01T03:43:33.621Z,82.57
2022-08-01T03:44:33.630Z,82.76
2022-08-01T03:45:33.633Z,82.96
2022-08-01T03:46:33.641Z,82.67
2022-08-01T03:47:33.631Z,83.44
2022-08-01T03:48:33.629Z,83.15
2022-08-01T03:49:33.679Z,83.34
2022-08-01T03:50:33.647Z,83.34
2022-08-01T03:51:33.646Z,82.67
2022-08-01T03:52:33.658Z,83.15
2022-08-01T03:53:33.651Z,83.44
2022-08-01T03:54:33.645Z,83.05
2022-08-01T03:55:33.652Z,83.25
2022-08-01T03:56:33.667Z,84.01
2022-08-01T03:57:36.294Z,83.15
2022-08-01T03:58:33.656Z,83.83
2022-08-01T03:59:33.659Z,84.11
2022-08-01T04:00:33.670Z,83.44
2022-08-01T04:01:33.754Z,83.73
2022-08-01T04:02:33.668Z,84.01
2022-08-01T04:03:33.681Z,84.01
2022-08-01T04:04:33.705Z,83.73
2022-08-01T04:05:33.678Z,84.21
2022-08-01T04:06:33.679Z,83.83
2022-08-01T04:07:33.681Z,84.41
2022-08-01T04:08:33.705Z,84.50
2022-08-01T04:09:33.689Z,83.92
2022-08-01T04:10:33.692Z,84.21
2022-08-01T04:11:33.687Z,84.41
2022-08-01T04:12:33.722Z,84.31
2022-08-01T04:13:37.062Z,84.31
2022-08-01T04:14:33.708Z,84.79
2022-08-01T04:15:33.693Z,84.89
2022-08-01T04:16:33.707Z,85.17
2022-08-01T04:17:33.709Z,84.89
2022-08-01T04:18:33.713Z,85.27
2022-08-01T04:19:33.705Z,85.66
2022-08-01T04:20:33.704Z,85.52
2022-08-01T04:21:33.710Z,85.94
2022-08-01T04:22:37.336Z,86.14
2022-08-01T04:23:33.723Z,86.43
2022-08-01T04:24:33.772Z,86.33
2022-08-01T04:25:33.734Z,86.24
2022-08-01T04:26:33.742Z,86.52
2022-08-01T04:27:49.910Z,86.43
2022-08-01T04:28:33.734Z,86.52
2022-08-01T04:29:33.801Z,87.10
2022-08-01T04:30:33.746Z,86.72
2022-08-01T04:31:33.733Z,86.72
2022-08-01T04:32:33.748Z,87.49
2022-08-01T04:33:33.742Z,87.88
2022-08-01T04:34:33.747Z,87.78
2022-08-01T04:36:01.909Z,88.07
2022-08-01T04:36:33.748Z,88.70
2022-08-01T04:37:33.747Z,88.60
2022-08-01T04:38:33.757Z,88.84
2022-08-01T04:39:33.753Z,88.65
2022-08-01T04:40:33.757Z,89.51
2022-08-01T04:41:33.771Z,88.79
2022-08-01T04:42:33.771Z,88.75
2022-08-01T04:43:33.765Z,88.84
2022-08-01T04:44:33.796Z,88.84
2022-08-01T04:45:33.771Z,89.03
2022-08-01T04:46:33.777Z,89.32
2022-08-01T04:47:33.788Z,89.90
2022-08-01T04:48:33.820Z,89.37
2022-08-01T04:49:33.845Z,89.81
2022-08-01T04:50:33.789Z,90.15
2022-08-01T04:51:33.805Z,90.72
2022-08-01T04:52:33.799Z,90.53
2022-08-01T04:53:33.798Z,90.24
2022-08-01T04:54:33.793Z,90.63
2022-08-01T04:55:33.797Z,91.02
2022-08-01T04:56:33.819Z,90.92
2022-08-01T04:57:33.810Z,91.69
2022-08-01T04:58:33.806Z,91.88
2022-08-01T04:59:33.839Z,92.17
2022-08-01T05:00:33.809Z,92.08
2022-08-01T05:01:33.862Z,91.98
2022-08-01T05:02:33.815Z,92.27
2022-08-01T05:03:38.459Z,92.36
2022-08-01T05:04:33.832Z,92.17
2022-08-01T05:05:33.854Z,92.27
2022-08-01T05:06:33.828Z,92.36
2022-08-01T05:07:33.832Z,92.17
2022-08-01T05:08:33.855Z,92.46
2022-08-01T05:09:33.865Z,92.36
2022-08-01T05:10:33.849Z,92.36
2022-08-01T05:11:33.852Z,92.27
2022-08-01T05:12:33.873Z,92.36
2022-08-01T05:13:33.852Z,92.36
2022-08-01T05:14:33.856Z,91.88
2022-08-01T05:15:33.857Z,91.98
2022-08-01T05:16:33.934Z,92.17
2022-08-01T05:17:33.877Z,92.46
2022-08-01T05:18:33.891Z,92.46
2022-08-01T05:19:41.037Z,92.46
2022-08-01T05:21:37.886Z,92.85
2022-08-01T05:22:37.877Z,93.04
2022-08-01T05:24:41.903Z,93.33
2022-08-01T05:25:57.041Z,93.04
2022-08-01T05:27:35.029Z,93.62
2022-08-01T05:28:35.018Z,94.20
2022-08-01T05:30:27.959Z,93.91
2022-08-01T05:31:27.950Z,93.71
2022-08-01T05:33:31.993Z,94.10
2022-08-01T05:34:31.963Z,94.00
2022-08-01T05:36:36.560Z,93.91
2022-08-01T05:37:36.371Z,94.10
2022-08-01T05:39:40.184Z,94.00
2022-08-01T05:40:40.159Z,93.71
2022-08-01T05:42:44.195Z,94.68
2022-08-01T05:43:44.215Z,94.20
2022-08-01T05:45:48.207Z,94.20
2022-08-01T05:46:48.185Z,94.20
2022-08-01T05:48:41.168Z,94.20
2022-08-01T05:49:41.182Z,94.20
2022-08-01T05:51:45.154Z,94.68
2022-08-01T05:52:45.159Z,94.87
2022-08-01T05:54:49.201Z,94.78
2022-08-01T05:55:49.182Z,94.78
2022-08-01T05:56:49.250Z,94.10
2022-08-01T05:57:49.181Z,94.58
2022-08-01T05:58:49.165Z,94.78
2022-08-01T05:59:49.187Z,94.78
2022-08-01T06:00:49.171Z,95.16
2022-08-01T06:01:49.234Z,96.80
2022-08-01T06:02:49.191Z,96.51
2022-08-01T06:03:49.191Z,96.22
2022-08-01T06:04:49.179Z,96.22
2022-08-01T06:05:49.192Z,96.41
2022-08-01T06:06:49.189Z,96.41
2022-08-01T06:07:49.248Z,96.41
2022-08-01T06:08:49.200Z,96.41
2022-08-01T06:09:49.208Z,96.61
2022-08-01T06:10:49.201Z,96.22
2022-08-01T06:11:49.227Z,96.61
2022-08-01T06:12:49.215Z,96.32
2022-08-01T06:13:49.227Z,97.47
2022-08-01T06:14:49.242Z,96.99
2022-08-01T06:15:49.231Z,97.38
2022-08-01T06:16:49.241Z,97.47
2022-08-01T06:17:49.244Z,97.57
2022-08-01T06:18:50.007Z,97.77
2022-08-01T06:19:49.228Z,97.47
2022-08-01T06:20:49.241Z,97.96
2022-08-01T06:21:49.269Z,98.68
2022-08-01T06:22:52.507Z,98.87
2022-08-01T06:23:49.240Z,99.45
2022-08-01T06:24:49.242Z,98.77
2022-08-01T06:25:49.244Z,98.58
2022-08-01T06:26:49.282Z,99.99
2022-08-01T06:27:49.267Z,99.99
2022-08-01T06:28:49.279Z,99.99
2022-08-01T06:29:53.489Z,99.99
2022-08-01T06:30:49.252Z,99.99
2022-08-01T06:31:49.255Z,99.99
2022-08-01T06:32:49.261Z,99.99
2022-08-01T06:33:49.280Z,99.99
2022-08-01T06:34:49.280Z,99.99
2022-08-01T06:35:49.279Z,99.99
2022-08-01T06:36:49.307Z,99.99
2022-08-01T06:37:49.290Z,99.99
2022-08-01T06:38:49.277Z,99.99
2022-08-01T06:39:49.294Z,99.99
2022-08-01T06:40:49.294Z,99.99
2022-08-01T06:41:49.302Z,99.99
2022-08-01T06:42:49.307Z,99.99
2022-08-01T06:43:49.297Z,99.99
2022-08-01T06:44:49.299Z,99.99
2022-08-01T06:45:49.299Z,99.99
2022-08-01T06:46:49.319Z,99.99
2022-08-01T06:47:50.813Z,99.99
2022-08-01T06:48:49.331Z,99.99
2022-08-01T06:49:49.300Z,99.99
2022-08-01T06:50:49.305Z,99.99
2022-08-01T06:51:49.311Z,99.99
2022-08-01T06:52:49.317Z,99.99
2022-08-01T06:53:49.320Z,99.99
2022-08-01T06:54:49.330Z,99.99
2022-08-01T06:55:49.317Z,99.99
2022-08-01T06:56:49.337Z,99.99
2022-08-01T06:57:49.334Z,99.99
2022-08-01T06:58:49.331Z,99.99
2022-08-01T06:59:51.938Z,99.99
2022-08-01T07:00:49.447Z,99.99
2022-08-01T07:01:49.349Z,99.99
2022-08-01T07:02:49.342Z,99.99
2022-08-01T07:03:54.572Z,99.99
2022-08-01T07:04:49.351Z,99.99
2022-08-01T07:05:49.350Z,99.99
2022-08-01T07:06:49.368Z,99.99
2022-08-01T07:07:49.366Z,99.99
2022-08-01T07:08:49.379Z,99.99
2022-08-01T07:09:49.368Z,99.99
2022-08-01T07:10:49.371Z,99.99
2022-08-01T07:11:49.377Z,99.99
2022-08-01T07:12:49.371Z,99.99
2022-08-01T07:13:49.382Z,99.99
2022-08-01T07:14:49.389Z,99.99
2022-08-01T07:15:49.377Z,99.99
2022-08-01T07:16:49.406Z,98.78
2022-08-01T07:17:49.385Z,99.55
2022-08-01T07:18:49.430Z,99.55
2022-08-01T07:19:49.392Z,98.87
2022-08-01T07:20:51.181Z,99.26
2022-08-01T07:21:50.235Z,99.26
2022-08-01T07:22:49.441Z,99.55
2022-08-01T07:23:49.407Z,98.68
2022-08-01T07:24:49.416Z,98.58
2022-08-01T07:25:49.951Z,98.10
2022-08-01T07:26:53.660Z,98.49
2022-08-01T07:27:49.430Z,98.68
2022-08-01T07:28:49.427Z,98.29
2022-08-01T07:29:49.429Z,97.62
2022-08-01T07:30:49.433Z,98.29
2022-08-01T07:31:49.465Z,98.29
2022-08-01T07:32:49.438Z,98.58
2022-08-01T07:33:49.573Z,98.87
2022-08-01T07:34:49.443Z,98.87
2022-08-01T07:35:49.446Z,97.62
2022-08-01T07:36:49.463Z,97.81
2022-08-01T07:37:49.550Z,97.86
2022-08-01T07:38:49.464Z,98.39
2022-08-01T07:39:49.458Z,98.44
2022-08-01T07:40:49.465Z,98.44
2022-08-01T07:42:06.530Z,98.73
2022-08-01T07:42:49.471Z,98.54
2022-08-01T07:43:56.657Z,98.49
2022-08-01T07:44:49.483Z,99.11
2022-08-01T07:45:49.487Z,98.68
2022-08-01T07:46:49.499Z,97.72
2022-08-01T07:47:49.478Z,97.81
2022-08-01T07:48:49.516Z,97.91
2022-08-01T07:49:49.491Z,96.27
2022-08-01T07:50:49.489Z,95.40
2022-08-01T07:52:03.391Z,95.11
2022-08-01T07:52:49.498Z,95.31
2022-08-01T07:53:49.539Z,96.17
2022-08-01T07:54:52.264Z,95.11
2022-08-01T07:55:49.514Z,93.76
2022-08-01T07:56:49.523Z,93.18
2022-08-01T07:57:49.514Z,93.85
2022-08-01T07:58:49.524Z,94.15
2022-08-01T07:59:49.532Z,93.57
2022-08-01T08:00:49.520Z,92.99
2022-08-01T08:01:49.586Z,92.89
2022-08-01T08:02:49.529Z,93.08
2022-08-01T08:03:49.531Z,92.41
2022-08-01T08:04:49.574Z,92.12
2022-08-01T08:05:58.144Z,92.70
2022-08-01T08:06:49.541Z,92.12
2022-08-01T08:07:49.573Z,92.41
2022-08-01T08:08:49.545Z,93.08
2022-08-01T08:09:51.253Z,92.22
2022-08-01T08:10:49.554Z,91.93
2022-08-01T08:11:49.559Z,91.54
2022-08-01T08:12:49.567Z,91.74
2022-08-01T08:13:49.564Z,91.16
2022-08-01T08:14:49.589Z,91.25
2022-08-01T08:15:49.578Z,91.16
2022-08-01T08:16:49.570Z,90.48
2022-08-01T08:17:55.010Z,90.67
2022-08-01T08:18:49.580Z,90.58
2022-08-01T08:19:49.582Z,90.58
2022-08-01T08:20:50.147Z,91.20
2022-08-01T08:21:49.589Z,90.44
2022-08-01T08:22:49.598Z,90.72
2022-08-01T08:23:49.597Z,90.58
2022-08-01T08:24:49.608Z,90.53
2022-08-01T08:25:49.598Z,90.77
2022-08-01T08:26:49.603Z,89.90
2022-08-01T08:27:49.718Z,89.23
2022-08-01T08:28:49.605Z,88.55
2022-08-01T08:29:49.618Z,88.22
2022-08-01T08:30:49.609Z,87.93
2022-08-01T08:31:52.084Z,88.79
2022-08-01T08:32:49.624Z,88.70
2022-08-01T08:33:49.632Z,88.89
2022-08-01T08:34:49.629Z,88.02
2022-08-01T08:35:54.209Z,87.93
2022-08-01T08:36:49.767Z,88.45
2022-08-01T08:37:49.698Z,88.36
2022-08-01T08:38:49.638Z,88.07
2022-08-01T08:39:49.644Z,87.88
2022-08-01T08:40:49.646Z,87.97
2022-08-01T08:41:50.129Z,88.07
2022-08-01T08:42:49.673Z,87.59
2022-08-01T08:43:49.656Z,87.68
2022-08-01T08:44:49.671Z,87.88
2022-08-01T08:45:56.300Z,87.20
2022-08-01T08:46:49.696Z,86.82
2022-08-01T08:47:49.679Z,87.15
2022-08-01T08:48:49.722Z,86.76
2022-08-01T08:49:49.884Z,86.38
2022-08-01T08:50:49.682Z,85.22
2022-08-01T08:51:49.692Z,85.99
2022-08-01T08:52:49.695Z,85.41
2022-08-01T08:53:49.690Z,84.93
2022-08-01T08:54:49.707Z,84.83
2022-08-01T08:55:55.790Z,83.67
2022-08-01T08:56:49.696Z,84.06
2022-08-01T08:57:49.713Z,82.90
2022-08-01T08:58:49.725Z,81.65
2022-08-01T08:59:49.781Z,81.45
2022-08-01T09:00:49.702Z,81.16
2022-08-01T09:01:49.714Z,79.81
2022-08-01T09:02:49.797Z,80.20
2022-08-01T09:03:49.730Z,80.00
2022-08-01T09:04:49.721Z,80.10
2022-08-01T09:05:49.739Z,80.20
2022-08-01T09:06:49.731Z,80.68
2022-08-01T09:07:49.738Z,81.26
2022-08-01T09:08:49.751Z,81.16
2022-08-01T09:09:49.787Z,80.58
2022-08-01T09:10:49.750Z,80.00
2022-08-01T09:11:57.468Z,79.81
2022-08-01T09:12:49.769Z,80.39
2022-08-01T09:13:49.779Z,80.20
2022-08-01T09:14:49.770Z,80.00
2022-08-01T09:15:49.766Z,79.91
2022-08-01T09:16:49.792Z,80.00
2022-08-01T09:17:49.796Z,80.00
2022-08-01T09:18:53.539Z,79.52
2022-08-01T09:19:49.790Z,79.72
2022-08-01T09:20:49.801Z,78.75
2022-08-01T09:21:49.801Z,78.27
2022-08-01T09:22:49.810Z,79.14
2022-08-01T09:23:54.489Z,79.43
2022-08-01T09:24:49.793Z,79.52
2022-08-01T09:25:49.811Z,79.52
2022-08-01T09:26:49.818Z,79.81
2022-08-01T09:27:49.865Z,79.52
2022-08-01T09:28:49.815Z,79.33
2022-08-01T09:30:00.223Z,79.72
2022-08-01T09:30:49.822Z,79.33
2022-08-01T09:31:49.827Z,79.62
2022-08-01T09:32:49.831Z,79.52
2022-08-01T09:33:50.674Z,80.00
2022-08-01T09:34:49.835Z,79.91
2022-08-01T09:35:49.837Z,80.30
2022-08-01T09:36:49.837Z,80.30
2022-08-01T09:37:50.724Z,80.10
2022-08-01T09:38:51.111Z,79.81
2022-08-01T09:39:49.855Z,79.52
2022-08-01T09:40:49.862Z,79.52
2022-08-01T09:41:49.871Z,79.14
2022-08-01T09:42:49.869Z,79.91
2022-08-01T09:43:49.876Z,79.81
2022-08-01T09:44:54.851Z,80.10
2022-08-01T09:45:50.821Z,79.91
2022-08-01T09:46:49.898Z,80.30
2022-08-01T09:47:49.904Z,80.68
2022-08-01T09:48:49.923Z,80.68
2022-08-01T09:49:52.092Z,80.39
2022-08-01T09:50:49.919Z,79.72
2022-08-01T09:51:59.816Z,80.10
2022-08-01T09:52:49.922Z,79.91
2022-08-01T09:53:51.771Z,79.81
2022-08-01T09:54:49.917Z,79.43
2022-08-01T09:55:50.059Z,79.81
2022-08-01T09:56:49.906Z,79.81
2022-08-01T09:57:49.919Z,79.62
2022-08-01T09:58:53.725Z,80.39
2022-08-01T09:59:59.077Z,80.00
2022-08-01T10:00:49.929Z,79.72
2022-08-01T10:01:49.930Z,79.91
2022-08-01T10:02:49.929Z,79.43
2022-08-01T10:03:49.994Z,79.72
2022-08-01T10:04:50.790Z,80.00
2022-08-01T10:05:50.282Z,78.75
2022-08-01T10:06:49.960Z,78.85
2022-08-01T10:07:49.954Z,78.85
2022-08-01T10:08:49.956Z,79.14
2022-08-01T10:09:49.962Z,79.24
2022-08-01T10:10:49.961Z,79.04
2022-08-01T10:11:49.969Z,79.62
2022-08-01T10:12:49.964Z,79.43
2022-08-01T10:13:49.967Z,79.72
2022-08-01T10:14:50.255Z,80.00
2022-08-01T10:15:49.974Z,79.81
2022-08-01T10:16:53.230Z,80.49
2022-08-01T10:17:51.571Z,80.39
2022-08-01T10:18:50.003Z,80.39
2022-08-01T10:19:49.996Z,80.10
2022-08-01T10:20:50.013Z,79.62
2022-08-01T10:21:58.199Z,78.94
2022-08-01T10:22:50.680Z,79.24
2022-08-01T10:23:50.027Z,79.04
2022-08-01T10:24:50.031Z,79.62
2022-08-01T10:25:50.011Z,79.14
2022-08-01T10:26:50.036Z,79.14
2022-08-01T10:27:50.051Z,79.33
2022-08-01T10:28:50.699Z,79.39
2022-08-01T10:30:05.385Z,79.52
2022-08-01T10:30:50.045Z,79.81
2022-08-01T10:31:50.321Z,79.33
2022-08-01T10:32:50.776Z,79.91
2022-08-01T10:33:53.154Z,79.91
2022-08-01T10:34:50.107Z,79.91
2022-08-01T10:35:50.074Z,80.30
2022-08-01T10:36:50.061Z,80.30
2022-08-01T10:37:51.899Z,80.00
2022-08-01T10:38:50.061Z,80.20
2022-08-01T10:39:50.058Z,79.72
2022-08-01T10:40:50.071Z,79.72
2022-08-01T10:41:50.082Z,80.10
2022-08-01T10:42:50.103Z,80.30
2022-08-01T10:43:50.078Z,80.00
2022-08-01T10:44:50.073Z,80.30
2022-08-01T10:45:50.082Z,80.00
2022-08-01T10:46:50.081Z,80.20
2022-08-01T10:47:51.224Z,79.72
2022-08-01T10:48:50.149Z,79.33
2022-08-01T10:49:50.096Z,79.81
2022-08-01T10:50:50.119Z,80.39
2022-08-01T10:51:52.185Z,80.68
2022-08-01T10:52:50.148Z,80.49
2022-08-01T10:53:50.104Z,80.58
2022-08-01T10:54:52.675Z,81.07
2022-08-01T10:55:50.112Z,80.49
2022-08-01T10:56:50.154Z,80.20
2022-08-01T10:57:52.841Z,80.68
2022-08-01T10:58:50.127Z,80.58
2022-08-01T11:00:01.204Z,80.68
2022-08-01T11:00:50.136Z,80.58
2022-08-01T11:01:50.209Z,80.49
2022-08-01T11:02:50.146Z,80.68
2022-08-01T11:03:57.507Z,80.68
2022-08-01T11:04:50.776Z,80.39
2022-08-01T11:05:50.158Z,79.81
2022-08-01T11:06:50.157Z,80.00
2022-08-01T11:07:50.159Z,80.00
2022-08-01T11:08:50.190Z,80.20
2022-08-01T11:09:51.972Z,80.20
2022-08-01T11:10:50.165Z,80.00
2022-08-01T11:11:50.184Z,80.10
2022-08-01T11:12:50.178Z,80.39
2022-08-01T11:13:50.178Z,80.30
2022-08-01T11:14:55.579Z,79.81
2022-08-01T11:15:50.995Z,79.52
2022-08-01T11:16:50.190Z,79.52
2022-08-01T11:17:50.266Z,79.62
2022-08-01T11:18:50.203Z,79.33
2022-08-01T11:19:50.197Z,79.29
2022-08-01T11:20:50.201Z,78.66
2022-08-01T11:21:59.328Z,78.85
2022-08-01T11:22:50.212Z,78.75
2022-08-01T11:23:50.208Z,79.33
2022-08-01T11:24:51.042Z,79.14
2022-08-01T11:26:04.029Z,78.27
2022-08-01T11:26:50.231Z,77.59
2022-08-01T11:27:50.250Z,77.59
2022-08-01T11:29:17.821Z,77.40
2022-08-01T11:29:50.239Z,77.11
2022-08-01T11:30:50.260Z,78.36
2022-08-01T11:31:50.247Z,78.36
2022-08-01T11:33:10.278Z,78.08
2022-08-01T11:33:50.253Z,78.17
2022-08-01T11:34:50.303Z,77.88
2022-08-01T11:35:50.263Z,78.17
2022-08-01T11:37:09.769Z,78.36
2022-08-01T11:37:50.283Z,78.94
2022-08-01T11:38:50.312Z,78.75
2022-08-01T11:39:50.262Z,79.14
2022-08-01T11:40:50.289Z,79.04
2022-08-01T11:41:50.270Z,78.66
2022-08-01T11:42:50.280Z,79.72
2022-08-01T11:43:50.280Z,80.10
2022-08-01T11:44:50.278Z,82.61
2022-08-01T11:45:50.289Z,83.87
2022-08-01T11:46:51.209Z,86.04
2022-08-01T11:47:50.294Z,86.47
2022-08-01T11:48:50.361Z,87.24
2022-08-01T11:49:50.320Z,88.59
2022-08-01T11:50:50.297Z,88.75
2022-08-01T11:51:50.307Z,88.89
2022-08-01T11:52:50.306Z,88.93
2022-08-01T11:53:50.318Z,89.47
2022-08-01T11:54:50.318Z,89.07
2022-08-01T11:55:51.422Z,89.56
2022-08-01T11:56:50.392Z,89.17
2022-08-01T11:57:50.333Z,89.56
2022-08-01T11:58:50.333Z,89.75
2022-08-01T12:00:02.555Z,90.14
2022-08-01T12:00:50.344Z,90.05
2022-08-01T12:01:50.356Z,89.75
2022-08-01T12:02:50.434Z,89.95
2022-08-01T12:03:50.341Z,90.62
2022-08-01T12:04:50.349Z,90.14
2022-08-01T12:05:50.354Z,90.23
2022-08-01T12:06:51.081Z,90.05
2022-08-01T12:07:50.371Z,90.14
2022-08-01T12:08:50.412Z,89.85
2022-08-01T12:09:50.377Z,90.14
2022-08-01T12:10:50.379Z,89.37
2022-08-01T12:11:50.380Z,88.69
2022-08-01T12:12:50.392Z,87.44
2022-08-01T12:13:50.396Z,87.05
2022-08-01T12:14:50.394Z,86.96
2022-08-01T12:15:54.746Z,86.32
2022-08-01T12:16:50.428Z,86.03
2022-08-01T12:17:57.685Z,84.78
2022-08-01T12:18:50.396Z,83.72
2022-08-01T12:19:50.413Z,83.14
2022-08-01T12:20:56.564Z,81.49
2022-08-01T12:21:55.821Z,80.53
2022-08-01T12:22:50.424Z,79.66
2022-08-01T12:23:50.435Z,78.79
2022-08-01T12:24:50.426Z,77.53
2022-08-01T12:25:50.435Z,77.53
2022-08-01T12:26:50.430Z,77.15
2022-08-01T12:27:55.724Z,76.67
2022-08-01T12:28:50.432Z,77.25
2022-08-01T12:29:50.439Z,76.76
2022-08-01T12:30:50.458Z,76.09
2022-08-01T12:31:50.454Z,75.99
2022-08-01T12:32:50.455Z,75.22
2022-08-01T12:33:50.451Z,74.83
2022-08-01T12:34:50.460Z,74.44
2022-08-01T12:35:50.474Z,74.64
2022-08-01T12:36:50.471Z,75.31
2022-08-01T12:37:50.468Z,75.51
2022-08-01T12:38:50.482Z,76.09
2022-08-01T12:39:50.483Z,76.18
2022-08-01T12:40:53.164Z,76.28
2022-08-01T12:41:50.486Z,75.79
2022-08-01T12:42:50.489Z,74.93
2022-08-01T12:43:50.498Z,74.73
2022-08-01T12:44:50.501Z,74.44
2022-08-01T12:45:57.096Z,74.87
2022-08-01T12:46:50.515Z,74.48
2022-08-01T12:47:50.523Z,73.61
2022-08-01T12:48:50.579Z,73.09
2022-08-01T12:49:50.522Z,73.13
2022-08-01T12:50:50.541Z,73.13
2022-08-01T12:51:57.249Z,73.90
2022-08-01T12:52:50.579Z,73.71
2022-08-01T12:53:50.592Z,73.42
2022-08-01T12:54:50.542Z,73.13
2022-08-01T12:55:59.451Z,72.74
2022-08-01T12:56:50.554Z,73.32
2022-08-01T12:57:50.550Z,72.84
2022-08-01T12:58:50.565Z,72.64
2022-08-01T12:59:50.562Z,72.74
2022-08-01T13:00:50.624Z,72.45
2022-08-01T13:01:50.674Z,72.16
2022-08-01T13:02:50.575Z,72.16
2022-08-01T13:03:50.600Z,72.06
2022-08-01T13:04:50.613Z,72.39